Time;durP1;ratioP1;P1;durP2;ratioP2;P2;SDS_P1;SDS_P2;PMS_P1;PMS_P2;Temp;Humidity;BMP_temperature;BMP_pressure;BME280_temperature;BME280_humidity;BME280_pressure;Samples;Min_cycle;Max_cycle;Signal;HPM_P1;HPM_P2
2023/05/26 00:00:19;;;;;;;33.53;6.80;;;;;;;;;;4964746;28;25057;-71
2023/05/26 00:02:46;;;;;;;29.48;6.05;;;;;;;;;;4963591;28;25056;-70
2023/05/26 00:05:13;;;;;;;23.55;5.55;;;;;;;;;;4966095;28;25079;-71
2023/05/26 00:07:40;;;;;;;27.90;6.50;;;;;;;;;;4964327;28;25146;-68
2023/05/26 00:10:06;;;;;;;31.25;5.85;;;;;;;;;;4964290;28;25082;-70
2023/05/26 00:12:33;;;;;;;36.50;7.70;;;;;;;;;;4966143;28;25054;-70
2023/05/26 00:14:58;;;;;;;23.13;4.90;;;;;;;;;;4966873;28;25061;-71
2023/05/26 00:17:28;;;;;;;24.67;5.65;;;;;;;;;;4968105;28;25060;-69
2023/05/26 00:19:54;;;;;;;35.80;7.30;;;;;;;;;;4967602;28;25059;-70
2023/05/26 00:22:20;;;;;;;32.75;6.10;;;;;;;;;;4967955;28;25095;-72
2023/05/26 00:24:47;;;;;;;29.30;4.95;;;;;;;;;;4960274;28;25060;-70
2023/05/26 00:27:13;;;;;;;26.92;5.75;;;;;;;;;;4966662;28;25084;-71
2023/05/26 00:29:41;;;;;;;24.10;4.85;;;;;;;;;;4968968;28;25100;-70
2023/05/26 00:32:07;;;;;;;29.08;6.00;;;;;;;;;;4962181;28;25060;-70
2023/05/26 00:34:36;;;;;;;22.13;4.90;;;;;;;;;;4967875;28;25074;-72
2023/05/26 00:37:02;;;;;;;33.63;6.18;;;;;;;;;;4968581;28;25071;-70
2023/05/26 00:39:30;;;;;;;24.98;4.97;;;;;;;;;;4966882;28;25087;-71
2023/05/26 00:41:56;;;;;;;25.65;4.53;;;;;;;;;;4965208;28;25051;-69
2023/05/26 00:44:22;;;;;;;34.60;7.55;;;;;;;;;;4964578;28;25185;-70
2023/05/26 00:46:48;;;;;;;26.63;5.93;;;;;;;;;;4966960;28;25065;-71
2023/05/26 00:49:15;;;;;;;34.03;8.88;;;;;;;;;;4965198;28;25142;-70
2023/05/26 00:51:41;;;;;;;32.33;7.15;;;;;;;;;;4969049;28;25103;-69
2023/05/26 00:54:09;;;;;;;35.28;6.55;;;;;;;;;;4961576;28;25063;-70
2023/05/26 00:56:35;;;;;;;21.33;6.43;;;;;;;;;;4967183;28;25060;-70
2023/05/26 00:59:03;;;;;;;22.38;4.80;;;;;;;;;;4964730;28;25051;-69
2023/05/26 01:01:29;;;;;;;28.65;6.22;;;;;;;;;;4970481;28;25170;-71
2023/05/26 01:03:56;;;;;;;20.40;5.15;;;;;;;;;;4964372;28;25171;-68
2023/05/26 01:06:22;;;;;;;26.65;4.68;;;;;;;;;;4964774;28;25072;-70
2023/05/26 01:08:48;;;;;;;25.45;5.55;;;;;;;;;;4966147;28;25054;-71
2023/05/26 01:11:21;;;;;;;24.88;5.07;;;;;;;;;;4965428;28;25155;-71
2023/05/26 01:13:51;;;;;;;30.45;5.97;;;;;;;;;;4965863;28;25138;-70
2023/05/26 01:16:22;;;;;;;28.30;6.07;;;;;;;;;;4965279;28;25059;-71
2023/05/26 01:19:02;;;;;;;33.40;6.68;;;;;;;;;;4963869;28;25055;-69
2023/05/26 01:21:31;;;;;;;35.92;6.38;;;;;;;;;;4968409;28;25052;-70
2023/05/26 01:24:03;;;;;;;24.55;6.10;;;;;;;;;;4966379;28;25075;-71
2023/05/26 01:26:29;;;;;;;36.25;7.95;;;;;;;;;;4968620;28;25075;-71
2023/05/26 01:28:58;;;;;;;31.58;6.38;;;;;;;;;;4964124;28;25068;-71
2023/05/26 01:31:24;;;;;;;29.65;6.07;;;;;;;;;;4965153;28;25137;-72
2023/05/26 01:33:50;;;;;;;16.40;4.90;;;;;;;;;;4960784;28;25109;-71
2023/05/26 01:36:17;;;;;;;30.75;5.82;;;;;;;;;;4965435;28;25056;-71
2023/05/26 01:38:43;;;;;;;31.48;5.93;;;;;;;;;;4960932;28;25086;-69
2023/05/26 01:41:17;;;;;;;23.80;5.95;;;;;;;;;;4964258;28;25088;-69
2023/05/26 01:43:59;;;;;;;30.73;6.80;;;;;;;;;;4963942;28;25073;-73
2023/05/26 01:46:26;;;;;;;27.90;4.93;;;;;;;;;;4964425;28;25115;-72
2023/05/26 01:48:54;;;;;;;25.65;5.38;;;;;;;;;;4962203;28;25066;-71
2023/05/26 01:51:21;;;;;;;31.67;6.60;;;;;;;;;;4965506;28;25059;-73
2023/05/26 01:53:49;;;;;;;22.23;4.60;;;;;;;;;;4964472;28;25099;-71
2023/05/26 01:56:15;;;;;;;23.10;5.38;;;;;;;;;;4965750;28;25131;-71
2023/05/26 01:58:42;;;;;;;26.40;4.80;;;;;;;;;;4964118;28;25147;-69
2023/05/26 02:01:09;;;;;;;44.40;6.13;;;;;;;;;;4965461;28;25136;-69
2023/05/26 02:03:35;;;;;;;24.77;6.03;;;;;;;;;;4966761;28;25081;-69
2023/05/26 02:06:01;;;;;;;33.50;5.35;;;;;;;;;;4968313;28;25055;-71
2023/05/26 02:08:27;;;;;;;30.33;6.47;;;;;;;;;;4967488;28;25047;-69
2023/05/26 02:10:53;;;;;;;27.75;5.65;;;;;;;;;;4967448;28;25164;-71
2023/05/26 02:13:19;;;;;;;41.50;7.63;;;;;;;;;;4966544;28;25059;-70
2023/05/26 02:15:45;;;;;;;36.85;6.10;;;;;;;;;;4968963;28;25069;-73
2023/05/26 02:18:11;;;;;;;24.23;5.60;;;;;;;;;;4953536;28;25066;-71
2023/05/26 02:20:37;;;;;;;20.90;5.38;;;;;;;;;;4969630;28;25153;-71
2023/05/26 02:23:03;;;;;;;29.90;5.38;;;;;;;;;;4971982;28;25060;-72
2023/05/26 02:25:30;;;;;;;37.72;5.10;;;;;;;;;;4968622;28;25054;-70
2023/05/26 02:27:56;;;;;;;31.38;5.40;;;;;;;;;;4969979;28;25093;-71
2023/05/26 02:30:22;;;;;;;23.65;5.00;;;;;;;;;;4970195;28;25102;-71
2023/05/26 02:32:48;;;;;;;29.38;4.78;;;;;;;;;;4966191;28;25070;-71
2023/05/26 02:35:14;;;;;;;26.48;6.20;;;;;;;;;;4968283;28;25060;-72
2023/05/26 02:37:41;;;;;;;20.92;5.18;;;;;;;;;;4967271;28;25066;-68
2023/05/26 02:40:09;;;;;;;31.90;7.10;;;;;;;;;;4970233;28;25051;-69
2023/05/26 02:42:35;;;;;;;25.85;6.38;;;;;;;;;;4971975;28;25069;-75
2023/05/26 02:45:01;;;;;;;31.42;6.00;;;;;;;;;;4971511;28;25114;-71
2023/05/26 02:47:27;;;;;;;27.50;5.90;;;;;;;;;;4969968;28;25088;-70
2023/05/26 02:49:53;;;;;;;32.53;6.55;;;;;;;;;;4970158;28;25080;-70
2023/05/26 02:52:19;;;;;;;29.30;5.80;;;;;;;;;;4968291;28;25107;-69
2023/05/26 02:54:45;;;;;;;32.75;6.05;;;;;;;;;;4972129;28;25094;-71
2023/05/26 02:57:11;;;;;;;34.60;5.72;;;;;;;;;;4969760;28;25146;-71
2023/05/26 02:59:36;;;;;;;24.90;5.30;;;;;;;;;;4972958;28;25065;-71
2023/05/26 03:02:03;;;;;;;24.77;5.18;;;;;;;;;;4972393;28;25080;-71
2023/05/26 03:04:28;;;;;;;33.05;5.95;;;;;;;;;;4972077;28;25185;-71
2023/05/26 03:06:54;;;;;;;24.73;6.53;;;;;;;;;;4972241;28;25073;-71
2023/05/26 03:09:20;;;;;;;29.33;5.30;;;;;;;;;;4973658;28;25106;-69
2023/05/26 03:11:46;;;;;;;33.47;6.40;;;;;;;;;;4974417;28;25079;-69
2023/05/26 03:14:12;;;;;;;26.58;6.32;;;;;;;;;;4972850;28;25110;-70
2023/05/26 03:16:38;;;;;;;35.33;5.22;;;;;;;;;;4974700;28;25137;-71
2023/05/26 03:19:05;;;;;;;29.20;5.90;;;;;;;;;;4967961;28;25053;-70
2023/05/26 03:21:32;;;;;;;29.67;5.80;;;;;;;;;;4971199;28;25059;-72
2023/05/26 03:23:58;;;;;;;25.02;5.20;;;;;;;;;;4969026;28;25061;-70
2023/05/26 03:26:25;;;;;;;34.83;5.35;;;;;;;;;;4972808;28;25086;-71
2023/05/26 03:28:51;;;;;;;27.65;5.28;;;;;;;;;;4968523;28;25125;-72
2023/05/26 03:31:17;;;;;;;30.83;5.32;;;;;;;;;;4968960;28;25138;-70
2023/05/26 03:33:45;;;;;;;35.10;5.53;;;;;;;;;;4969470;28;25069;-71
2023/05/26 03:36:11;;;;;;;23.13;5.85;;;;;;;;;;4970298;28;25068;-71
2023/05/26 03:38:37;;;;;;;22.90;5.72;;;;;;;;;;4968136;28;25094;-71
2023/05/26 03:41:02;;;;;;;39.63;7.60;;;;;;;;;;4970116;28;25075;-71
2023/05/26 03:43:28;;;;;;;30.52;5.95;;;;;;;;;;4968273;28;25149;-70
2023/05/26 03:45:54;;;;;;;28.38;5.38;;;;;;;;;;4969169;28;25097;-71
2023/05/26 03:48:20;;;;;;;27.00;5.03;;;;;;;;;;4967222;28;25128;-71
2023/05/26 03:50:48;;;;;;;29.67;5.22;;;;;;;;;;4969419;28;25073;-70
2023/05/26 03:53:14;;;;;;;28.00;5.40;;;;;;;;;;4971033;28;25051;-70
2023/05/26 03:55:40;;;;;;;29.58;5.20;;;;;;;;;;4968313;28;25144;-71
2023/05/26 03:58:05;;;;;;;30.00;5.03;;;;;;;;;;4965196;28;25053;-71
2023/05/26 04:00:32;;;;;;;30.08;5.40;;;;;;;;;;4966934;28;25060;-73
2023/05/26 04:02:58;;;;;;;42.28;6.40;;;;;;;;;;4965035;28;25074;-69
2023/05/26 04:05:24;;;;;;;25.70;5.72;;;;;;;;;;4966152;28;25065;-70
2023/05/26 04:07:50;;;;;;;39.22;5.65;;;;;;;;;;4967808;28;25063;-69
2023/05/26 04:10:16;;;;;;;31.63;6.22;;;;;;;;;;4968845;28;25069;-72
2023/05/26 04:12:43;;;;;;;26.75;5.22;;;;;;;;;;4971629;28;25064;-71
2023/05/26 04:15:09;;;;;;;31.95;5.25;;;;;;;;;;4969221;28;26175;-72
2023/05/26 04:17:36;;;;;;;26.40;5.28;;;;;;;;;;4966580;28;25053;-71
2023/05/26 04:20:05;;;;;;;30.92;7.00;;;;;;;;;;4973437;28;25057;-70
2023/05/26 04:22:32;;;;;;;29.08;5.68;;;;;;;;;;4974745;28;25079;-70
2023/05/26 04:24:58;;;;;;;46.00;7.93;;;;;;;;;;4973435;28;25072;-71
2023/05/26 04:27:27;;;;;;;22.35;4.95;;;;;;;;;;4970451;28;25060;-71
2023/05/26 04:29:53;;;;;;;36.28;5.78;;;;;;;;;;4961968;28;25065;-69
2023/05/26 04:32:21;;;;;;;31.55;5.50;;;;;;;;;;4972224;28;25067;-72
2023/05/26 04:34:48;;;;;;;26.20;5.07;;;;;;;;;;4977801;28;25050;-72
2023/05/26 04:37:14;;;;;;;24.73;4.80;;;;;;;;;;4972901;28;25086;-73
2023/05/26 04:39:41;;;;;;;32.55;5.20;;;;;;;;;;4980627;28;25077;-70
2023/05/26 04:42:07;;;;;;;29.52;6.78;;;;;;;;;;4975091;28;25073;-70
2023/05/26 04:44:33;;;;;;;30.60;4.78;;;;;;;;;;4972849;28;25088;-68
2023/05/26 04:47:00;;;;;;;41.28;7.20;;;;;;;;;;4969929;28;25079;-70
2023/05/26 04:49:29;;;;;;;33.17;5.22;;;;;;;;;;4971005;28;25125;-71
2023/05/26 04:51:56;;;;;;;22.02;4.85;;;;;;;;;;4982727;28;25101;-72
2023/05/26 04:54:22;;;;;;;25.30;6.38;;;;;;;;;;4984589;28;25082;-71
2023/05/26 04:56:48;;;;;;;29.13;5.63;;;;;;;;;;4986861;28;25106;-72
2023/05/26 04:59:14;;;;;;;23.90;5.47;;;;;;;;;;4973564;28;25068;-71
2023/05/26 05:01:40;;;;;;;36.92;8.05;;;;;;;;;;4972402;28;25092;-71
2023/05/26 05:04:07;;;;;;;25.75;4.95;;;;;;;;;;4965919;28;25078;-70
2023/05/26 05:06:33;;;;;;;29.98;6.47;;;;;;;;;;4967717;28;25159;-71
2023/05/26 05:09:00;;;;;;;28.13;6.22;;;;;;;;;;4966975;28;25072;-73
2023/05/26 05:11:26;;;;;;;33.45;6.90;;;;;;;;;;4968718;28;25091;-75
2023/05/26 05:13:52;;;;;;;25.73;5.60;;;;;;;;;;4967081;28;25136;-73
2023/05/26 05:16:18;;;;;;;32.30;6.13;;;;;;;;;;4968890;28;25055;-72
2023/05/26 05:18:44;;;;;;;27.05;6.05;;;;;;;;;;4966093;28;25082;-71
2023/05/26 05:21:10;;;;;;;31.05;5.93;;;;;;;;;;4967613;28;25075;-73
2023/05/26 05:23:36;;;;;;;23.15;5.72;;;;;;;;;;4962128;28;25148;-72
2023/05/26 05:26:02;;;;;;;23.92;6.57;;;;;;;;;;4966129;28;25057;-74
2023/05/26 05:28:29;;;;;;;23.02;5.03;;;;;;;;;;4962811;28;25085;-71
2023/05/26 05:30:55;;;;;;;28.73;7.25;;;;;;;;;;4967625;28;25047;-72
2023/05/26 05:33:21;;;;;;;24.85;5.40;;;;;;;;;;4967698;28;25082;-76
2023/05/26 05:35:47;;;;;;;21.83;4.70;;;;;;;;;;4965895;28;25074;-72
2023/05/26 05:38:13;;;;;;;35.45;5.60;;;;;;;;;;4967305;28;25158;-71
2023/05/26 05:40:39;;;;;;;36.42;5.78;;;;;;;;;;4968924;28;25077;-70
2023/05/26 05:43:05;;;;;;;19.73;5.15;;;;;;;;;;4969040;28;25099;-71
2023/05/26 05:45:31;;;;;;;35.63;6.40;;;;;;;;;;4970255;28;25105;-74
2023/05/26 05:47:57;;;;;;;27.50;4.65;;;;;;;;;;4965312;28;25073;-74
2023/05/26 05:50:23;;;;;;;19.88;4.95;;;;;;;;;;4969476;28;25066;-74
2023/05/26 05:52:49;;;;;;;26.40;5.82;;;;;;;;;;4970190;28;25067;-72
2023/05/26 05:55:16;;;;;;;31.25;5.18;;;;;;;;;;4966979;28;25099;-73
2023/05/26 05:57:42;;;;;;;24.75;5.72;;;;;;;;;;4967181;28;25085;-73
2023/05/26 06:00:09;;;;;;;35.17;6.63;;;;;;;;;;4968977;28;25156;-70
2023/05/26 06:02:36;;;;;;;30.83;6.80;;;;;;;;;;4965994;28;25080;-72
2023/05/26 06:05:02;;;;;;;21.48;4.30;;;;;;;;;;4966423;28;25077;-75
2023/05/26 06:07:28;;;;;;;27.42;4.68;;;;;;;;;;4960765;28;25065;-76
2023/05/26 06:09:55;;;;;;;27.15;5.05;;;;;;;;;;4961599;28;25062;-73
2023/05/26 06:12:21;;;;;;;23.92;4.80;;;;;;;;;;4965671;28;25051;-75
2023/05/26 06:14:47;;;;;;;32.15;6.15;;;;;;;;;;4966239;28;25076;-73
2023/05/26 06:17:13;;;;;;;33.80;7.50;;;;;;;;;;4965367;28;25077;-71
2023/05/26 06:19:39;;;;;;;29.95;4.85;;;;;;;;;;4968005;28;25095;-71
2023/05/26 06:22:05;;;;;;;36.30;6.85;;;;;;;;;;4966356;28;25081;-75
2023/05/26 06:24:31;;;;;;;22.67;6.45;;;;;;;;;;4967646;28;25147;-73
2023/05/26 06:26:57;;;;;;;25.42;4.70;;;;;;;;;;4964292;28;25078;-72
2023/05/26 06:29:23;;;;;;;29.13;5.28;;;;;;;;;;4966728;28;25094;-70
2023/05/26 06:31:49;;;;;;;23.90;6.43;;;;;;;;;;4966808;28;25068;-71
2023/05/26 06:34:15;;;;;;;24.30;5.32;;;;;;;;;;4961755;28;25075;-72
2023/05/26 06:36:41;;;;;;;25.05;5.15;;;;;;;;;;4961014;28;25095;-70
2023/05/26 06:39:07;;;;;;;27.55;5.72;;;;;;;;;;4964244;28;25093;-72
2023/05/26 06:41:33;;;;;;;28.92;6.25;;;;;;;;;;4961726;28;25079;-71
2023/05/26 06:43:59;;;;;;;36.03;6.43;;;;;;;;;;4960309;28;25061;-72
2023/05/26 06:46:25;;;;;;;28.40;5.57;;;;;;;;;;4966411;28;25050;-71
2023/05/26 06:48:51;;;;;;;22.48;5.00;;;;;;;;;;4970359;28;25061;-71
2023/05/26 06:51:17;;;;;;;28.67;6.68;;;;;;;;;;4966485;28;25020;-72
2023/05/26 06:53:43;;;;;;;21.92;4.85;;;;;;;;;;4964868;28;25074;-72
2023/05/26 06:56:09;;;;;;;37.63;6.72;;;;;;;;;;4963171;28;25062;-72
2023/05/26 06:58:35;;;;;;;17.27;4.68;;;;;;;;;;4962140;28;25076;-73
2023/05/26 07:01:02;;;;;;;29.90;5.78;;;;;;;;;;4964297;28;25065;-71
2023/05/26 07:03:28;;;;;;;19.35;4.82;;;;;;;;;;4964714;28;25067;-71
2023/05/26 07:05:54;;;;;;;23.80;5.70;;;;;;;;;;4966378;28;25130;-71
2023/05/26 07:08:20;;;;;;;23.95;4.47;;;;;;;;;;4968960;28;26194;-74
2023/05/26 07:10:46;;;;;;;24.17;4.60;;;;;;;;;;4976691;28;25074;-72
2023/05/26 07:13:13;;;;;;;25.52;5.25;;;;;;;;;;4966185;28;25074;-71
2023/05/26 07:15:39;;;;;;;23.95;5.43;;;;;;;;;;4967238;28;25065;-71
2023/05/26 07:18:05;;;;;;;25.98;5.15;;;;;;;;;;4966713;28;25055;-71
2023/05/26 07:20:31;;;;;;;29.13;5.35;;;;;;;;;;4969482;28;25162;-75
2023/05/26 07:22:57;;;;;;;29.38;5.60;;;;;;;;;;4964729;28;25149;-73
2023/05/26 07:25:23;;;;;;;19.25;4.57;;;;;;;;;;4963675;28;25048;-71
2023/05/26 07:27:49;;;;;;;21.23;6.25;;;;;;;;;;4961354;28;25139;-74
2023/05/26 07:30:15;;;;;;;18.42;4.72;;;;;;;;;;4963575;28;25073;-73
2023/05/26 07:32:41;;;;;;;33.13;5.32;;;;;;;;;;4964467;28;25134;-73
2023/05/26 07:35:07;;;;;;;22.83;5.88;;;;;;;;;;4962979;28;25063;-74
2023/05/26 07:37:33;;;;;;;20.90;5.00;;;;;;;;;;4962828;28;25095;-72
2023/05/26 07:39:59;;;;;;;20.02;5.70;;;;;;;;;;4962805;28;25087;-73
2023/05/26 07:42:25;;;;;;;20.55;4.07;;;;;;;;;;4963303;28;25066;-75
2023/05/26 07:44:51;;;;;;;23.73;4.22;;;;;;;;;;4966622;28;25155;-73
2023/05/26 07:47:17;;;;;;;28.83;5.00;;;;;;;;;;4962788;28;25141;-73
2023/05/26 07:49:43;;;;;;;21.25;4.40;;;;;;;;;;4967214;28;25068;-76
2023/05/26 07:52:09;;;;;;;19.30;4.32;;;;;;;;;;4970808;28;25130;-72
2023/05/26 07:54:35;;;;;;;22.02;4.88;;;;;;;;;;4972042;28;25092;-72
2023/05/26 07:57:01;;;;;;;27.13;6.15;;;;;;;;;;4973267;28;25068;-74
2023/05/26 07:59:27;;;;;;;34.40;6.18;;;;;;;;;;4965681;28;25055;-71
2023/05/26 08:01:53;;;;;;;29.60;6.80;;;;;;;;;;4967343;28;25161;-72
2023/05/26 08:04:19;;;;;;;24.80;6.47;;;;;;;;;;4962261;28;25186;-72
2023/05/26 08:06:45;;;;;;;27.02;6.15;;;;;;;;;;4962987;28;25102;-73
2023/05/26 08:09:11;;;;;;;689.67;49.47;;;;;;;;;;4961128;28;25103;-73
2023/05/26 08:11:37;;;;;;;24.00;4.85;;;;;;;;;;4965419;28;25062;-73
2023/05/26 08:14:03;;;;;;;23.08;4.40;;;;;;;;;;4961280;28;25079;-69
2023/05/26 08:16:29;;;;;;;28.05;5.35;;;;;;;;;;4962917;28;25072;-73
2023/05/26 08:18:55;;;;;;;23.92;4.63;;;;;;;;;;4960910;28;25087;-73
2023/05/26 08:21:21;;;;;;;39.28;5.43;;;;;;;;;;4959364;28;25075;-73
2023/05/26 08:23:47;;;;;;;29.40;5.40;;;;;;;;;;4961301;28;25072;-75
2023/05/26 08:26:13;;;;;;;24.17;4.72;;;;;;;;;;4961674;28;25078;-72
2023/05/26 08:28:39;;;;;;;21.90;4.57;;;;;;;;;;4962851;28;25084;-73
2023/05/26 08:31:05;;;;;;;20.90;3.70;;;;;;;;;;4962906;28;25060;-71
2023/05/26 08:33:31;;;;;;;22.15;4.47;;;;;;;;;;4963171;28;25066;-73
2023/05/26 08:35:57;;;;;;;28.13;5.82;;;;;;;;;;4963182;28;25165;-72
2023/05/26 08:38:23;;;;;;;20.17;4.68;;;;;;;;;;4963926;28;25060;-72
2023/05/26 08:40:51;;;;;;;23.05;4.38;;;;;;;;;;4963963;28;25166;-73
2023/05/26 08:43:19;;;;;;;46.55;5.75;;;;;;;;;;4960203;28;25089;-73
2023/05/26 08:45:46;;;;;;;16.30;4.53;;;;;;;;;;4968520;28;25068;-71
2023/05/26 08:48:12;;;;;;;32.03;5.22;;;;;;;;;;4960938;28;25140;-72
2023/05/26 08:50:38;;;;;;;26.90;4.78;;;;;;;;;;4964193;28;25056;-71
2023/05/26 08:53:05;;;;;;;16.98;3.88;;;;;;;;;;4960812;28;25084;-72
2023/05/26 08:55:32;;;;;;;20.05;5.05;;;;;;;;;;4968431;28;25161;-72
2023/05/26 08:58:00;;;;;;;33.72;5.70;;;;;;;;;;4975477;28;25098;-72
2023/05/26 09:00:30;;;;;;;20.17;4.28;;;;;;;;;;4970811;28;25069;-71
2023/05/26 09:03:01;;;;;;;15.63;3.72;;;;;;;;;;4963517;28;25069;-72
2023/05/26 09:05:30;;;;;;;11.50;3.88;;;;;;;;;;4963558;28;25051;-72
2023/05/26 09:07:56;;;;;;;18.52;4.85;;;;;;;;;;4961270;28;25089;-73
2023/05/26 09:10:26;;;;;;;19.52;4.47;;;;;;;;;;4961798;28;25091;-72
2023/05/26 09:13:05;;;;;;;19.70;4.35;;;;;;;;;;4960792;28;25121;-73
2023/05/26 09:15:32;;;;;;;20.90;5.18;;;;;;;;;;4963331;28;25057;-72
2023/05/26 09:18:08;;;;;;;16.70;4.82;;;;;;;;;;4964358;28;26183;-74
2023/05/26 09:20:35;;;;;;;15.57;4.53;;;;;;;;;;4966309;28;25065;-73
2023/05/26 09:23:01;;;;;;;12.25;4.18;;;;;;;;;;4963802;28;25071;-75
2023/05/26 09:25:31;;;;;;;16.73;4.28;;;;;;;;;;4962843;28;25128;-72
2023/05/26 09:28:00;;;;;;;27.40;4.45;;;;;;;;;;4962314;28;25112;-72
2023/05/26 09:30:35;;;;;;;13.30;3.70;;;;;;;;;;4962230;28;25061;-73
2023/05/26 09:33:01;;;;;;;15.77;3.92;;;;;;;;;;4960804;28;25056;-73
2023/05/26 09:35:27;;;;;;;21.27;4.80;;;;;;;;;;4961670;28;25087;-72
2023/05/26 09:37:55;;;;;;;20.75;4.63;;;;;;;;;;4962252;28;25103;-74
2023/05/26 09:40:21;;;;;;;18.23;4.18;;;;;;;;;;4960745;28;25105;-75
2023/05/26 09:42:54;;;;;;;19.75;4.25;;;;;;;;;;4963444;28;25062;-74
2023/05/26 09:45:20;;;;;;;18.27;4.32;;;;;;;;;;4959419;28;25056;-74
2023/05/26 09:47:46;;;;;;;39.75;5.45;;;;;;;;;;4960887;28;25077;-73
2023/05/26 09:50:12;;;;;;;15.23;3.90;;;;;;;;;;4961676;28;25287;-72
2023/05/26 09:52:38;;;;;;;23.08;5.28;;;;;;;;;;4964862;28;25071;-71
2023/05/26 09:55:04;;;;;;;39.80;5.55;;;;;;;;;;4960148;28;25067;-74
2023/05/26 09:57:31;;;;;;;18.13;4.15;;;;;;;;;;4960953;28;25045;-74
2023/05/26 09:59:57;;;;;;;19.63;4.45;;;;;;;;;;4962220;28;25129;-72
2023/05/26 10:02:25;;;;;;;20.90;4.70;;;;;;;;;;4975135;28;25106;-73
2023/05/26 10:04:51;;;;;;;19.88;3.92;;;;;;;;;;4979881;28;25095;-72
2023/05/26 10:07:18;;;;;;;14.68;3.53;;;;;;;;;;4969589;28;25061;-73
2023/05/26 10:09:46;;;;;;;13.05;3.10;;;;;;;;;;4988538;28;25072;-73
2023/05/26 10:12:13;;;;;;;18.17;3.63;;;;;;;;;;4984021;28;25066;-73
2023/05/26 10:14:39;;;;;;;12.82;3.63;;;;;;;;;;4988245;28;25065;-73
2023/05/26 10:17:05;;;;;;;11.57;4.15;;;;;;;;;;4987895;28;25096;-73
2023/05/26 10:19:31;;;;;;;18.27;4.18;;;;;;;;;;4990066;28;25115;-72
2023/05/26 10:22:01;;;;;;;16.48;3.40;;;;;;;;;;4987185;28;25075;-73
2023/05/26 10:24:31;;;;;;;18.40;3.58;;;;;;;;;;4986237;28;25077;-74
2023/05/26 10:27:27;;;;;;;13.15;3.67;;;;;;;;;;4984375;28;25057;-72
2023/05/26 10:30:05;;;;;;;15.93;4.40;;;;;;;;;;4968411;28;25060;-72
2023/05/26 10:32:47;;;;;;;15.70;3.50;;;;;;;;;;4976251;28;25056;-73
2023/05/26 10:35:22;;;;;;;7.75;2.55;;;;;;;;;;4986585;28;25055;-71
2023/05/26 10:38:03;;;;;;;20.10;4.78;;;;;;;;;;4992781;28;25074;-73
2023/05/26 10:40:29;;;;;;;14.02;3.67;;;;;;;;;;4986067;28;25059;-72
2023/05/26 10:42:59;;;;;;;20.00;4.50;;;;;;;;;;4988954;28;25062;-72
2023/05/26 10:45:25;;;;;;;17.15;3.67;;;;;;;;;;4991094;28;25049;-72
2023/05/26 10:47:51;;;;;;;15.55;4.32;;;;;;;;;;4989750;28;25085;-73
2023/05/26 10:50:17;;;;;;;17.25;4.35;;;;;;;;;;4987340;28;25101;-74
2023/05/26 10:52:47;;;;;;;11.77;2.90;;;;;;;;;;4989055;28;25056;-74
2023/05/26 10:55:31;;;;;;;14.23;3.72;;;;;;;;;;4971971;28;25124;-74
2023/05/26 10:58:16;;;;;;;13.32;4.25;;;;;;;;;;4963253;28;25129;-75
2023/05/26 11:00:44;;;;;;;17.23;3.88;;;;;;;;;;4969088;28;25163;-73
2023/05/26 11:03:31;;;;;;;16.90;4.13;;;;;;;;;;4966190;28;25072;-74
2023/05/26 11:05:57;;;;;;;13.07;3.60;;;;;;;;;;4972872;28;25059;-73
2023/05/26 11:08:23;;;;;;;20.90;4.50;;;;;;;;;;4976562;28;25067;-73
2023/05/26 11:11:00;;;;;;;13.02;3.90;;;;;;;;;;4984013;28;25093;-72
2023/05/26 11:13:39;;;;;;;13.57;3.95;;;;;;;;;;4975748;28;25102;-73
2023/05/26 11:16:14;;;;;;;13.15;3.42;;;;;;;;;;4972053;28;25063;-73
2023/05/26 11:18:47;;;;;;;12.10;3.70;;;;;;;;;;4973567;28;25067;-73
2023/05/26 11:21:13;;;;;;;9.50;3.05;;;;;;;;;;4972794;28;25045;-71
2023/05/26 11:23:39;;;;;;;18.27;4.00;;;;;;;;;;4977153;28;25059;-73
2023/05/26 11:26:12;;;;;;;10.63;3.05;;;;;;;;;;4975328;28;25072;-74
2023/05/26 11:28:42;;;;;;;12.68;3.38;;;;;;;;;;4976640;28;25064;-73
2023/05/26 11:31:12;;;;;;;14.98;3.40;;;;;;;;;;4976793;28;25075;-73
2023/05/26 11:33:38;;;;;;;13.05;3.75;;;;;;;;;;4986913;28;25058;-75
2023/05/26 11:36:12;;;;;;;11.57;3.95;;;;;;;;;;4972935;28;25085;-73
2023/05/26 11:38:38;;;;;;;21.77;4.15;;;;;;;;;;4970484;28;25050;-76
2023/05/26 11:41:08;;;;;;;15.95;4.68;;;;;;;;;;4968729;28;25068;-73
2023/05/26 11:43:34;;;;;;;12.27;3.35;;;;;;;;;;4967709;28;25066;-73
2023/05/26 11:46:05;;;;;;;15.65;4.05;;;;;;;;;;4970229;28;25052;-74
2023/05/26 11:48:50;;;;;;;15.73;3.80;;;;;;;;;;4967076;28;25073;-74
2023/05/26 11:51:19;;;;;;;14.82;4.43;;;;;;;;;;4966903;28;25072;-75
2023/05/26 11:53:45;;;;;;;13.18;3.42;;;;;;;;;;4969180;28;25057;-73
2023/05/26 11:56:14;;;;;;;16.10;3.65;;;;;;;;;;4970255;28;25059;-73
2023/05/26 11:58:41;;;;;;;18.05;5.10;;;;;;;;;;4968217;28;25101;-75
2023/05/26 12:01:08;;;;;;;13.05;3.58;;;;;;;;;;4971415;28;25121;-75
2023/05/26 12:03:36;;;;;;;16.58;4.63;;;;;;;;;;4967832;28;25118;-75
2023/05/26 12:06:10;;;;;;;19.13;4.75;;;;;;;;;;4973280;28;25107;-73
2023/05/26 12:08:48;;;;;;;11.90;2.90;;;;;;;;;;4969165;28;25069;-73
2023/05/26 12:11:18;;;;;;;16.75;4.25;;;;;;;;;;4969781;28;25071;-73
2023/05/26 12:13:44;;;;;;;12.48;3.92;;;;;;;;;;4975985;28;25065;-75
2023/05/26 12:16:17;;;;;;;12.02;3.78;;;;;;;;;;4981274;28;25121;-72
2023/05/26 12:18:44;;;;;;;12.95;3.60;;;;;;;;;;4966344;28;25071;-73
2023/05/26 12:21:10;;;;;;;17.98;3.60;;;;;;;;;;4967317;28;25097;-77
2023/05/26 12:23:37;;;;;;;13.15;4.28;;;;;;;;;;4962740;28;25120;-74
2023/05/26 12:26:13;;;;;;;13.95;4.50;;;;;;;;;;4947702;28;25080;-73
2023/05/26 12:28:42;;;;;;;10.77;3.80;;;;;;;;;;4965802;28;25078;-73
2023/05/26 12:31:08;;;;;;;19.30;3.83;;;;;;;;;;4963698;28;25040;-74
2023/05/26 12:33:34;;;;;;;16.70;3.50;;;;;;;;;;4964519;28;25053;-74
2023/05/26 12:36:00;;;;;;;15.02;3.22;;;;;;;;;;4971605;28;25136;-74
2023/05/26 12:38:27;;;;;;;8.68;3.00;;;;;;;;;;4962791;28;25159;-75
2023/05/26 12:40:54;;;;;;;15.55;4.03;;;;;;;;;;4967481;28;25131;-76
2023/05/26 12:43:21;;;;;;;10.60;3.08;;;;;;;;;;4961940;28;25069;-75
2023/05/26 12:45:47;;;;;;;18.13;3.72;;;;;;;;;;4963129;28;25071;-74
2023/05/26 12:48:13;;;;;;;15.10;4.85;;;;;;;;;;4960442;28;25132;-74
2023/05/26 12:50:39;;;;;;;15.07;3.67;;;;;;;;;;4960997;28;25095;-73
2023/05/26 12:53:05;;;;;;;14.52;3.50;;;;;;;;;;4962296;28;25055;-73
2023/05/26 12:55:32;;;;;;;16.13;3.47;;;;;;;;;;4963453;28;25140;-74
2023/05/26 12:57:58;;;;;;;12.05;3.28;;;;;;;;;;4961340;28;25066;-74
2023/05/26 13:00:24;;;;;;;12.35;3.42;;;;;;;;;;4964012;28;25069;-73
2023/05/26 13:02:50;;;;;;;12.95;2.75;;;;;;;;;;4962369;28;25108;-74
2023/05/26 13:05:16;;;;;;;11.60;3.67;;;;;;;;;;4963584;28;25110;-76
2023/05/26 13:07:42;;;;;;;14.77;3.97;;;;;;;;;;4964282;28;25152;-73
2023/05/26 13:10:08;;;;;;;18.33;3.88;;;;;;;;;;4966270;28;25183;-74
2023/05/26 13:12:34;;;;;;;17.45;3.20;;;;;;;;;;4965033;28;25151;-76
2023/05/26 13:15:00;;;;;;;16.27;3.63;;;;;;;;;;4964421;28;25058;-74
2023/05/26 13:17:26;;;;;;;13.05;3.28;;;;;;;;;;4961683;28;25124;-73
2023/05/26 13:19:52;;;;;;;13.48;4.10;;;;;;;;;;4974008;28;25064;-76
2023/05/26 13:22:19;;;;;;;11.32;2.97;;;;;;;;;;4974641;28;25053;-72
2023/05/26 13:24:45;;;;;;;17.30;3.70;;;;;;;;;;4973666;28;25074;-75
2023/05/26 13:27:11;;;;;;;9.82;3.45;;;;;;;;;;4975455;28;25095;-73
2023/05/26 13:29:37;;;;;;;14.65;3.38;;;;;;;;;;4972309;28;25082;-75
2023/05/26 13:32:02;;;;;;;14.63;4.03;;;;;;;;;;4963679;28;25070;-71
2023/05/26 13:34:29;;;;;;;15.88;3.55;;;;;;;;;;4962665;28;25105;-75
2023/05/26 13:36:54;;;;;;;17.90;4.15;;;;;;;;;;4963863;28;25131;-75
2023/05/26 13:39:20;;;;;;;16.77;3.63;;;;;;;;;;4960237;28;25148;-76
2023/05/26 13:41:46;;;;;;;12.77;3.03;;;;;;;;;;4962314;28;25057;-76
2023/05/26 13:44:12;;;;;;;16.55;3.47;;;;;;;;;;4960908;28;25145;-75
2023/05/26 13:46:38;;;;;;;15.10;3.75;;;;;;;;;;4963128;28;25116;-75
2023/05/26 13:49:06;;;;;;;22.23;4.45;;;;;;;;;;4961222;28;25071;-76
2023/05/26 13:51:32;;;;;;;13.77;4.22;;;;;;;;;;4964013;28;25143;-76
2023/05/26 13:53:58;;;;;;;11.73;4.88;;;;;;;;;;4964533;28;25083;-74
2023/05/26 13:56:24;;;;;;;15.77;4.15;;;;;;;;;;4965625;28;25057;-75
2023/05/26 13:58:50;;;;;;;11.30;3.67;;;;;;;;;;4964963;28;25086;-75
2023/05/26 14:01:16;;;;;;;13.77;3.35;;;;;;;;;;4963178;28;25201;-74
2023/05/26 14:03:42;;;;;;;15.88;3.70;;;;;;;;;;4965037;28;25093;-74
2023/05/26 14:06:08;;;;;;;16.17;3.10;;;;;;;;;;4965019;28;25127;-74
2023/05/26 14:08:34;;;;;;;13.82;3.70;;;;;;;;;;4963009;28;25077;-74
2023/05/26 14:11:00;;;;;;;14.52;3.88;;;;;;;;;;4966419;28;25078;-74
2023/05/26 14:13:26;;;;;;;11.57;4.18;;;;;;;;;;4967776;28;25056;-76
2023/05/26 14:15:53;;;;;;;10.02;2.97;;;;;;;;;;4988540;28;25069;-73
2023/05/26 14:18:19;;;;;;;12.25;3.63;;;;;;;;;;4978582;28;25076;-73
2023/05/26 14:20:45;;;;;;;9.77;3.35;;;;;;;;;;4979001;28;25045;-75
2023/05/26 14:23:12;;;;;;;18.67;3.25;;;;;;;;;;4979380;28;25082;-73
2023/05/26 14:25:38;;;;;;;18.70;3.80;;;;;;;;;;4979057;28;25110;-75
2023/05/26 14:28:03;;;;;;;15.00;4.35;;;;;;;;;;4980147;28;25051;-74
2023/05/26 14:30:31;;;;;;;12.88;3.30;;;;;;;;;;4984365;28;25077;-77